Time;durP1;ratioP1;P1;durP2;ratioP2;P2;SDS_P1;SDS_P2;PMS_P1;PMS_P2;Temp;Humidity;BMP_temperature;BMP_pressure;BME280_temperature;BME280_humidity;BME280_pressure;Samples;Min_cycle;Max_cycle;Signal;HPM_P1;HPM_P2
2022/09/24 00:01:15;;;;;;;15.57;2.40;;;38.40;52.40;;;;;;4992514;28;20022;-61
2022/09/24 00:03:46;;;;;;;7.28;1.90;;;38.50;50.00;;;;;;4990693;28;20050;-61
2022/09/24 00:06:17;;;;;;;13.00;2.50;;;38.50;51.30;;;;;;4988277;28;20038;-62
2022/09/24 00:08:45;;;;;;;9.05;2.00;;;38.40;48.90;;;;;;4989593;28;20121;-62
2022/09/24 00:11:12;;;;;;;17.83;2.60;;;;;;;;;;4988783;28;20030;-63
2022/09/24 00:13:39;;;;;;;13.05;2.20;;;38.30;48.40;;;;;;4987661;28;20117;-62
2022/09/24 00:16:09;;;;;;;17.38;2.88;;;38.60;90.20;;;;;;4972668;28;20500;-63
2022/09/24 00:18:36;;;;;;;16.98;2.78;;;38.30;57.60;;;;;;4988264;28;20041;-62
2022/09/24 00:21:18;;;;;;;12.70;2.15;;;38.20;71.00;;;;;;4984746;28;20096;-63
2022/09/24 00:23:48;;;;;;;10.05;2.00;;;38.20;72.30;;;;;;4988612;28;20485;-62
2022/09/24 00:29:00;;;;;;;12.02;2.40;;;;;;;;;;4990345;28;20133;-65
2022/09/24 00:31:27;;;;;;;16.00;2.25;;;;;;;;;;4990775;28;20058;-65
2022/09/24 00:33:53;;;;;;;14.43;2.45;;;37.80;71.10;;;;;;4987345;28;20121;-65
2022/09/24 00:36:21;;;;;;;12.45;2.50;;;38.00;48.30;;;;;;4990985;28;20121;-63
2022/09/24 00:38:50;;;;;;;18.40;2.20;;;;;;;;;;4989315;28;20053;-62
2022/09/24 00:41:18;;;;;;;10.43;2.40;;;38.00;48.20;;;;;;4988220;28;20168;-65
2022/09/24 00:43:45;;;;;;;10.02;2.50;;;;;;;;;;4976318;28;20022;-62
2022/09/24 00:46:11;;;;;;;11.18;2.50;;;;;;;;;;4987753;28;20115;-64
2022/09/24 00:48:40;;;;;;;11.48;2.25;;;;;;;;;;4987482;28;20033;-63
2022/09/24 00:51:07;;;;;;;13.20;1.92;;;;;;;;;;4988543;28;20719;-63
2022/09/24 00:53:34;;;;;;;12.20;2.08;;;;;;;;;;4988557;28;20050;-64
2022/09/24 00:56:02;;;;;;;13.25;2.10;;;;;;;;;;4989415;28;20105;-62
2022/09/24 00:58:32;;;;;;;13.57;2.50;;;37.50;70.50;;;;;;4989627;28;20085;-63
2022/09/24 01:01:04;;;;;;;13.90;2.67;;;38.00;55.20;;;;;;4988431;28;20045;-64
2022/09/24 01:03:35;;;;;;;16.58;2.83;;;37.50;48.60;;;;;;4988267;28;20042;-62
2022/09/24 01:06:01;;;;;;;20.33;3.03;;;37.80;60.40;;;;;;4989481;28;20109;-63
2022/09/24 01:08:28;;;;;;;27.85;3.58;;;37.60;77.50;;;;;;4988492;28;20101;-62
2022/09/24 01:11:12;;;;;;;33.60;3.17;;;37.30;51.10;;;;;;4990146;28;20045;-64
2022/09/24 01:14:16;;;;;;;16.23;2.30;;;37.30;51.70;;;;;;4988770;28;20053;-63
2022/09/24 01:16:56;;;;;;;15.95;2.88;;;;;;;;;;4987454;28;20120;-64
2022/09/24 01:19:41;;;;;;;10.90;2.40;;;;;;;;;;4989485;28;21370;-64
2022/09/24 01:22:32;;;;;;;14.43;2.65;;;37.20;69.20;;;;;;4986726;28;20018;-59
2022/09/24 01:24:59;;;;;;;18.23;3.80;;;;;;;;;;4988815;28;20023;-63
2022/09/24 01:27:37;;;;;;;6.97;3.63;;;36.70;50.40;;;;;;4988515;28;20118;-63
2022/09/24 01:30:03;;;;;;;15.40;3.45;;;;;;;;;;4989019;28;20544;-62
2022/09/24 01:32:42;;;;;;;19.23;3.28;;;37.20;66.40;;;;;;4989607;28;20073;-64
2022/09/24 01:35:38;;;;;;;12.57;2.80;;;37.00;55.90;;;;;;4988672;28;20501;-63
2022/09/24 01:38:22;;;;;;;17.83;4.03;;;36.90;68.80;;;;;;5007551;28;20694;-62
2022/09/24 01:40:50;;;;;;;17.67;4.00;;;37.00;86.00;;;;;;4987700;28;20032;-62
2022/09/24 01:43:21;;;;;;;15.25;3.08;;;36.40;88.20;;;;;;5004603;28;20034;-62
2022/09/24 01:45:48;;;;;;;20.05;3.50;;;36.40;82.00;;;;;;4987648;28;20026;-64
2022/09/24 01:48:19;;;;;;;20.35;3.88;;;36.90;63.60;;;;;;5004064;28;20105;-63
2022/09/24 01:51:17;;;;;;;16.33;3.13;;;39.00;54.90;;;;;;4989842;28;20303;-64
2022/09/24 01:53:49;;;;;;;21.88;3.72;;;36.60;55.10;;;;;;4987369;28;20452;-62
2022/09/24 01:56:40;;;;;;;23.55;4.32;;;36.90;92.00;;;;;;4988198;28;20022;-63
2022/09/24 01:59:12;;;;;;;22.83;4.20;;;;;;;;;;4988090;28;20030;-62
2022/09/24 02:01:55;;;;;;;19.70;3.40;;;35.90;54.40;;;;;;4988371;28;20537;-63
2022/09/24 02:04:25;;;;;;;17.50;3.67;;;36.60;73.30;;;;;;4990445;28;20048;-65
2022/09/24 02:07:03;;;;;;;19.90;3.53;;;;;;;;;;4972916;28;20030;-65
2022/09/24 02:09:32;;;;;;;23.38;4.45;;;36.50;94.20;;;;;;4990099;28;20035;-63
2022/09/24 02:12:16;;;;;;;33.85;4.78;;;36.80;54.00;;;;;;4988303;28;20428;-65
2022/09/24 02:14:53;;;;;;;17.63;4.25;;;36.20;93.20;;;;;;4989224;28;20069;-64
2022/09/24 02:17:23;;;;;;;29.08;4.22;;;36.30;54.00;;;;;;4973840;28;20030;-63
2022/09/24 02:19:49;;;;;;;48.95;6.78;;;36.20;53.70;;;;;;4985500;28;20034;-62
2022/09/24 02:22:17;;;;;;;43.90;8.30;;;36.10;78.20;;;;;;4988007;28;20381;-62
2022/09/24 02:24:48;;;;;;;50.65;11.07;;;36.00;74.60;;;;;;4989734;28;20050;-61
2022/09/24 02:27:15;;;;;;;44.28;5.03;;;;;;;;;;4987908;28;20038;-63
2022/09/24 02:29:41;;;;;;;43.90;4.95;;;35.90;93.20;;;;;;4990833;28;20046;-62
2022/09/24 02:32:12;;;;;;;42.05;7.13;;;36.10;78.20;;;;;;4988234;28;20042;-62
2022/09/24 02:34:46;;;;;;;45.60;9.90;;;35.80;76.70;;;;;;4994285;28;20057;-61
2022/09/24 02:37:14;;;;;;;50.80;6.43;;;35.20;73.60;;;;;;5004941;28;20469;-61
2022/09/24 02:39:40;;;;;;;31.80;5.90;;;;;;;;;;4988092;28;20026;-62
2022/09/24 02:42:10;;;;;;;34.75;5.20;;;35.30;90.70;;;;;;4986677;28;20034;-62
2022/09/24 02:44:36;;;;;;;39.85;4.30;;;35.20;86.00;;;;;;4988891;28;20035;-63
2022/09/24 02:47:03;;;;;;;23.20;4.43;;;35.30;94.00;;;;;;4973496;28;20023;-63
2022/09/24 02:49:29;;;;;;;23.73;3.85;;;34.80;66.20;;;;;;4989836;28;20018;-61
2022/09/24 02:51:56;;;;;;;31.02;4.38;;;;;;;;;;4988911;28;20027;-60
2022/09/24 02:54:24;;;;;;;34.33;5.10;;;35.30;70.90;;;;;;4988402;28;20556;-61
2022/09/24 02:56:51;;;;;;;24.83;4.40;;;35.30;68.70;;;;;;4989566;28;20030;-62
2022/09/24 02:59:18;;;;;;;19.88;3.88;;;35.10;90.70;;;;;;4993723;28;20364;-61
2022/09/24 03:01:44;;;;;;;22.60;4.47;;;35.20;71.70;;;;;;4988563;28;20092;-62
2022/09/24 03:04:13;;;;;;;22.17;4.22;;;;;;;;;;4972364;28;20358;-63
2022/09/24 03:06:40;;;;;;;25.00;4.00;;;;;;;;;;4990706;28;20022;-61
2022/09/24 03:09:06;;;;;;;30.17;4.13;;;35.00;82.60;;;;;;4988079;28;20035;-63
2022/09/24 03:11:34;;;;;;;30.15;4.18;;;;;;;;;;4990349;28;20058;-63
2022/09/24 03:14:01;;;;;;;25.80;4.85;;;35.00;57.60;;;;;;4988415;28;20022;-63
2022/09/24 03:16:27;;;;;;;33.78;4.65;;;34.90;58.20;;;;;;4989080;28;20022;-61
2022/09/24 03:18:54;;;;;;;26.00;4.13;;;35.00;58.40;;;;;;4989544;28;20037;-63
2022/09/24 03:21:21;;;;;;;21.75;4.25;;;35.00;58.20;;;;;;4988023;28;20042;-63
2022/09/24 03:23:48;;;;;;;24.05;3.67;;;35.00;58.30;;;;;;4986373;28;20026;-63
2022/09/24 03:26:16;;;;;;;22.73;3.42;;;34.90;58.00;;;;;;4990725;28;20133;-62
2022/09/24 03:28:42;;;;;;;25.85;3.67;;;34.90;78.00;;;;;;4991784;28;20026;-63
2022/09/24 03:31:09;;;;;;;29.98;3.90;;;35.00;75.70;;;;;;4998475;28;20173;-60
2022/09/24 03:33:39;;;;;;;28.27;4.95;;;34.70;76.30;;;;;;4991504;28;20136;-62
2022/09/24 03:36:27;;;;;;;24.33;3.80;;;34.60;88.30;;;;;;4991710;28;20037;-62
2022/09/24 03:38:56;;;;;;;18.70;3.47;;;34.80;58.80;;;;;;4974965;28;20034;-61
2022/09/24 03:41:24;;;;;;;20.13;3.45;;;34.90;87.70;;;;;;4991301;28;20561;-62
2022/09/24 03:43:50;;;;;;;25.77;3.65;;;35.20;84.10;;;;;;4991463;28;20030;-62
2022/09/24 03:46:18;;;;;;;31.63;4.72;;;;;;;;;;4991464;28;20496;-62
2022/09/24 03:48:46;;;;;;;29.33;5.00;;;34.60;76.80;;;;;;4993087;28;20050;-61
2022/09/24 03:51:18;;;;;;;17.60;4.47;;;34.60;85.60;;;;;;4993446;28;20022;-63
2022/09/24 03:53:46;;;;;;;27.35;4.93;;;34.70;58.80;;;;;;4992121;28;20018;-62
2022/09/24 03:56:13;;;;;;;27.35;5.22;;;35.00;92.00;;;;;;4990584;28;20026;-64
2022/09/24 03:58:40;;;;;;;27.73;4.53;;;34.70;92.10;;;;;;4990163;28;20113;-60
2022/09/24 04:01:09;;;;;;;28.55;4.40;;;34.60;59.50;;;;;;4992379;28;20108;-61
2022/09/24 04:03:36;;;;;;;26.17;5.35;;;34.60;80.80;;;;;;4991883;28;20026;-62
2022/09/24 04:06:03;;;;;;;28.40;5.40;;;34.50;60.00;;;;;;5006786;28;20436;-62
2022/09/24 04:08:30;;;;;;;21.45;4.88;;;34.60;59.80;;;;;;4991658;28;20037;-60
2022/09/24 04:10:57;;;;;;;25.63;5.15;;;34.40;78.10;;;;;;4975296;28;20104;-62
2022/09/24 04:13:23;;;;;;;34.50;9.45;;;34.20;78.90;;;;;;4992484;28;20500;-61
2022/09/24 04:15:50;;;;;;;50.28;13.45;;;34.40;60.70;;;;;;4990885;28;20030;-62
2022/09/24 04:18:17;;;;;;;57.03;14.48;;;34.50;59.40;;;;;;4990114;28;20041;-63
2022/09/24 04:20:44;;;;;;;61.38;9.95;;;34.40;82.30;;;;;;4990954;28;20116;-63
2022/09/24 04:23:11;;;;;;;48.65;5.93;;;34.50;79.20;;;;;;4972402;28;20034;-62
2022/09/24 04:25:39;;;;;;;41.08;6.75;;;;;;;;;;4973146;28;20053;-64
2022/09/24 04:28:07;;;;;;;41.25;6.40;;;34.20;83.70;;;;;;4985908;22;20054;-62
2022/09/24 04:30:35;;;;;;;36.90;5.55;;;34.20;80.70;;;;;;4980879;28;20053;-61
2022/09/24 04:33:01;;;;;;;27.35;5.25;;;34.30;61.20;;;;;;4978796;28;20034;-62
2022/09/24 04:35:30;;;;;;;33.97;5.03;;;34.20;61.70;;;;;;4978035;28;20030;-63
2022/09/24 04:37:59;;;;;;;33.28;10.45;;;34.20;76.80;;;;;;4974810;28;20053;-62
2022/09/24 04:40:26;;;;;;;44.10;14.73;;;34.10;79.40;;;;;;4972762;28;20056;-63
2022/09/24 04:42:53;;;;;;;36.95;9.63;;;34.10;62.50;;;;;;4959071;28;20022;-63
2022/09/24 04:45:20;;;;;;;42.00;8.38;;;34.10;63.00;;;;;;4942750;28;20027;-64
2022/09/24 04:47:56;;;;;;;40.50;7.90;;;34.10;62.90;;;;;;4972118;28;20034;-63
2022/09/24 04:50:28;;;;;;;35.35;9.30;;;34.10;62.80;;;;;;4989109;28;20041;-62
2022/09/24 04:52:55;;;;;;;27.55;6.50;;;34.00;63.90;;;;;;4989675;28;20030;-64
2022/09/24 04:55:24;;;;;;;35.80;6.88;;;34.00;63.70;;;;;;4973117;28;20125;-64
2022/09/24 04:57:51;;;;;;;42.33;7.03;;;34.00;64.40;;;;;;4990015;28;20038;-64
2022/09/24 05:00:19;;;;;;;28.00;6.35;;;33.90;63.70;;;;;;4990418;28;20572;-64
2022/09/24 05:02:45;;;;;;;35.13;6.40;;;33.90;63.70;;;;;;4973599;28;20064;-66
2022/09/24 05:05:12;;;;;;;31.27;5.68;;;33.90;64.00;;;;;;4973185;28;20033;-64
2022/09/24 05:07:40;;;;;;;26.25;6.00;;;33.80;64.00;;;;;;4972857;28;20027;-63
2022/09/24 05:10:07;;;;;;;32.58;6.10;;;33.80;63.60;;;;;;4956929;28;20378;-64
2022/09/24 05:12:35;;;;;;;34.20;5.70;;;33.70;88.70;;;;;;4973054;28;20121;-65
2022/09/24 05:15:01;;;;;;;35.13;6.13;;;33.80;88.10;;;;;;4973513;28;20097;-65
2022/09/24 05:17:28;;;;;;;28.70;5.40;;;33.70;87.00;;;;;;4955139;28;20493;-66
2022/09/24 05:19:56;;;;;;;30.27;5.30;;;33.50;87.30;;;;;;4989614;28;20101;-62
2022/09/24 05:22:24;;;;;;;30.30;4.85;;;33.70;76.90;;;;;;4973520;28;20756;-63
2022/09/24 05:24:50;;;;;;;31.67;5.50;;;33.70;89.60;;;;;;4938991;28;20535;-63
2022/09/24 05:27:19;;;;;;;33.08;5.40;;;33.80;83.70;;;;;;4986749;28;20625;-65
2022/09/24 05:29:45;;;;;;;28.75;5.53;;;33.60;65.30;;;;;;4989333;28;20038;-64
2022/09/24 05:32:14;;;;;;;26.95;5.03;;;33.60;65.30;;;;;;4973224;28;20072;-63
2022/09/24 05:34:43;;;;;;;23.33;5.13;;;33.50;65.70;;;;;;4972932;28;20085;-66
2022/09/24 05:37:10;;;;;;;23.77;5.55;;;33.50;65.80;;;;;;4972977;28;20050;-64
2022/09/24 05:39:37;;;;;;;28.73;4.53;;;33.50;65.40;;;;;;4971921;28;20050;-65
2022/09/24 05:42:03;;;;;;;31.23;4.75;;;33.50;65.10;;;;;;4971620;28;20448;-61
2022/09/24 05:44:32;;;;;;;27.73;5.13;;;33.50;65.50;;;;;;4988542;28;20450;-65
2022/09/24 05:46:59;;;;;;;23.23;4.50;;;33.50;65.20;;;;;;4972787;28;20033;-63
2022/09/24 05:49:25;;;;;;;25.10;5.05;;;33.40;65.50;;;;;;4972827;28;20122;-64
2022/09/24 05:51:52;;;;;;;19.27;4.43;;;33.40;65.70;;;;;;4972924;28;20023;-63
2022/09/24 05:54:19;;;;;;;29.90;5.28;;;33.40;66.00;;;;;;4972129;28;20060;-63
2022/09/24 05:56:45;;;;;;;28.30;5.72;;;33.40;66.20;;;;;;4971599;28;20396;-63
2022/09/24 05:59:12;;;;;;;27.75;4.70;;;33.40;66.00;;;;;;4990263;28;20945;-64
2022/09/24 06:01:39;;;;;;;25.40;3.95;;;33.30;66.10;;;;;;4989724;28;20026;-66
2022/09/24 06:04:05;;;;;;;20.52;4.18;;;33.30;65.80;;;;;;4989492;28;20439;-63
2022/09/24 06:06:33;;;;;;;31.55;4.82;;;33.30;66.20;;;;;;4972462;28;20027;-63
2022/09/24 06:08:59;;;;;;;29.77;7.35;;;33.30;65.50;;;;;;4988877;28;20026;-62
2022/09/24 06:11:33;;;;;;;25.63;9.40;;;33.20;66.20;;;;;;4972454;28;20022;-64
2022/09/24 06:14:01;;;;;;;21.90;8.35;;;33.20;66.30;;;;;;4972230;28;20029;-63
2022/09/24 06:16:28;;;;;;;26.05;4.95;;;33.20;85.40;;;;;;4990397;28;20022;-64
2022/09/24 06:18:54;;;;;;;22.55;4.72;;;33.20;88.20;;;;;;4956191;28;20053;-62
2022/09/24 06:21:21;;;;;;;28.05;5.95;;;33.10;75.30;;;;;;4972365;28;20057;-62
2022/09/24 06:23:48;;;;;;;31.08;5.53;;;33.10;66.20;;;;;;4971698;28;20026;-65
2022/09/24 06:26:14;;;;;;;29.23;5.40;;;32.90;87.70;;;;;;4970624;28;20031;-61
2022/09/24 06:28:41;;;;;;;25.27;5.32;;;33.00;91.30;;;;;;4971349;28;20053;-63
2022/09/24 06:31:10;;;;;;;23.80;6.88;;;33.00;65.90;;;;;;4988675;28;20026;-63
2022/09/24 06:33:37;;;;;;;23.05;6.53;;;32.90;90.20;;;;;;4990106;28;20026;-62
2022/09/24 06:36:04;;;;;;;25.42;7.18;;;33.00;65.90;;;;;;4988753;28;20023;-62
2022/09/24 06:38:31;;;;;;;27.92;6.90;;;33.00;90.40;;;;;;4955006;28;20034;-61
2022/09/24 06:41:02;;;;;;;39.50;7.68;;;33.60;89.60;;;;;;4955745;28;20033;-62
2022/09/24 06:43:29;;;;;;;44.08;7.88;;;33.40;86.50;;;;;;4955929;28;20026;-64
2022/09/24 06:45:58;;;;;;;31.70;7.65;;;33.20;90.30;;;;;;4971775;28;20022;-63
2022/09/24 06:48:26;;;;;;;32.67;7.40;;;33.00;91.00;;;;;;4955550;28;20030;-63
2022/09/24 06:50:56;;;;;;;39.28;8.07;;;32.80;88.50;;;;;;4970978;28;20485;-63
2022/09/24 06:53:22;;;;;;;33.20;8.00;;;;;;;;;;4974451;28;20370;-61
2022/09/24 06:55:49;;;;;;;41.70;9.27;;;33.10;89.60;;;;;;4989921;28;20030;-62
2022/09/24 06:58:19;;;;;;;39.35;9.35;;;32.80;66.80;;;;;;4988264;28;20481;-63
2022/09/24 07:00:53;;;;;;;45.15;9.20;;;32.90;87.90;;;;;;4944561;28;20026;-63
2022/09/24 07:03:21;;;;;;;38.10;8.07;;;32.90;93.20;;;;;;4960188;28;20027;-63
2022/09/24 07:05:48;;;;;;;42.22;6.75;;;32.60;92.20;;;;;;4974363;28;20416;-63
2022/09/24 07:08:14;;;;;;;28.77;6.32;;;32.70;90.70;;;;;;4975472;28;20117;-63
2022/09/24 07:10:45;;;;;;;24.58;5.38;;;32.70;65.20;;;;;;4959206;28;20023;-63
2022/09/24 07:13:13;;;;;;;19.67;4.78;;;32.70;75.60;;;;;;4975673;28;20057;-62
2022/09/24 07:15:40;;;;;;;22.65;4.95;;;32.70;59.30;;;;;;4968198;28;20026;-63
2022/09/24 07:18:07;;;;;;;16.45;4.53;;;32.80;74.60;;;;;;4959107;28;20169;-64
2022/09/24 07:20:35;;;;;;;16.10;3.72;;;32.70;58.50;;;;;;4974768;28;20027;-63
2022/09/24 07:23:06;;;;;;;12.70;4.30;;;32.70;58.10;;;;;;4974163;28;20046;-61
2022/09/24 07:25:33;;;;;;;18.65;4.53;;;32.60;57.80;;;;;;4990771;28;20109;-61
2022/09/24 07:28:08;;;;;;;17.38;4.10;;;32.60;71.20;;;;;;4958460;28;20034;-64
2022/09/24 07:30:35;;;;;;;25.17;4.30;;;32.70;77.90;;;;;;4975237;28;20424;-61
2022/09/24 07:33:01;;;;;;;26.70;4.18;;;32.70;78.40;;;;;;4974235;28;20049;-67
2022/09/24 07:35:28;;;;;;;16.70;4.03;;;33.10;76.80;;;;;;4942536;28;20026;-63
2022/09/24 07:38:00;;;;;;;19.27;3.83;;;32.50;58.20;;;;;;4975161;28;20030;-62
2022/09/24 07:40:27;;;;;;;21.15;3.85;;;32.50;59.70;;;;;;4975991;28;20022;-63
2022/09/24 07:42:54;;;;;;;17.05;3.53;;;32.40;58.80;;;;;;4993059;28;20061;-64
2022/09/24 07:45:26;;;;;;;30.25;3.60;;;32.40;59.50;;;;;;4958459;28;20031;-63
2022/09/24 07:48:01;;;;;;;17.85;3.55;;;32.40;60.40;;;;;;4959351;28;20062;-63
2022/09/24 07:50:29;;;;;;;24.65;3.25;;;32.40;60.00;;;;;;4959231;28;20114;-63
2022/09/24 07:52:56;;;;;;;20.67;3.85;;;32.40;60.60;;;;;;4974453;28;20160;-61
2022/09/24 07:55:23;;;;;;;18.80;3.35;;;32.40;60.30;;;;;;4973622;28;20027;-64
2022/09/24 07:57:51;;;;;;;22.98;3.67;;;32.30;60.10;;;;;;4974424;28;20432;-62
2022/09/24 08:00:19;;;;;;;21.58;3.95;;;32.30;60.70;;;;;;4958956;28;20380;-64
2022/09/24 08:02:46;;;;;;;25.85;3.70;;;32.30;61.40;;;;;;4943583;28;20067;-63
2022/09/24 08:05:15;;;;;;;17.50;3.15;;;32.30;61.40;;;;;;4990815;28;20023;-63
2022/09/24 08:07:42;;;;;;;25.15;3.72;;;32.30;61.10;;;;;;4974799;28;21034;-62
2022/09/24 08:10:09;;;;;;;18.85;3.60;;;32.20;61.10;;;;;;4974254;28;20406;-61
2022/09/24 08:12:35;;;;;;;19.10;3.60;;;32.10;61.40;;;;;;4974941;28;20046;-64
2022/09/24 08:15:01;;;;;;;16.45;3.35;;;32.20;62.10;;;;;;4974665;28;20053;-62
2022/09/24 08:17:28;;;;;;;14.75;3.30;;;32.10;61.30;;;;;;4973880;28;20030;-60
2022/09/24 08:19:55;;;;;;;22.35;3.90;;;32.10;61.80;;;;;;4973983;28;20037;-63
2022/09/24 08:22:23;;;;;;;16.67;3.47;;;32.10;61.50;;;;;;4958512;28;20491;-64
2022/09/24 08:24:50;;;;;;;22.52;3.30;;;32.10;61.00;;;;;;4963487;28;21001;-62
2022/09/24 08:27:19;;;;;;;19.15;3.50;;;32.00;60.50;;;;;;4973685;28;20022;-61
2022/09/24 08:29:45;;;;;;;23.95;3.45;;;32.00;61.30;;;;;;4973751;28;20049;-62
2022/09/24 08:32:12;;;;;;;18.98;3.15;;;32.80;77.40;;;;;;4973771;28;20022;-63
2022/09/24 08:34:41;;;;;;;20.25;3.30;;;32.00;81.00;;;;;;4973644;28;20456;-64
2022/09/24 08:37:08;;;;;;;20.77;3.70;;;31.90;60.80;;;;;;4990138;28;20105;-65
2022/09/24 08:39:35;;;;;;;22.92;4.10;;;31.90;60.60;;;;;;4972715;28;20065;-61
2022/09/24 08:42:05;;;;;;;19.15;3.58;;;31.80;63.50;;;;;;4972713;28;20022;-64
2022/09/24 08:48:01;;;;;;;20.00;3.10;;;31.70;62.20;;;;;;4991236;28;20373;-63
2022/09/24 08:50:31;;;;;;;16.48;3.55;;;31.70;62.80;;;;;;4987735;28;20233;-63
2022/09/24 08:53:10;;;;;;;12.85;3.20;;;31.70;61.90;;;;;;4973773;28;20406;-63
2022/09/24 08:55:45;;;;;;;18.40;3.38;;;31.50;93.10;;;;;;4954539;28;20176;-62
2022/09/24 08:58:36;;;;;;;13.63;3.15;;;31.40;75.50;;;;;;4987424;28;20041;-63
2022/09/24 09:01:11;;;;;;;12.88;3.10;;;31.60;72.00;;;;;;4989598;28;20350;-62
2022/09/24 09:03:50;;;;;;;11.45;2.67;;;31.50;61.20;;;;;;4973758;28;20042;-63
2022/09/24 09:06:31;;;;;;;15.77;3.70;;;31.50;61.10;;;;;;4989976;28;20116;-63
2022/09/24 09:09:18;;;;;;;40.58;4.38;;;31.50;61.20;;;;;;4973164;28;20034;-62
2022/09/24 09:12:04;;;;;;;;;;;31.50;61.00;;;;;;4972487;28;20181;-63
2022/09/24 09:14:51;;;;;;;28.38;3.88;;;31.40;62.60;;;;;;4971583;28;19945;-64
2022/09/24 09:17:48;;;;;;;19.95;3.97;;;31.30;64.70;;;;;;4990025;28;20034;-62
2022/09/24 09:20:39;;;;;;;21.95;3.38;;;31.30;74.50;;;;;;4972749;28;20032;-63
2022/09/24 09:23:14;;;;;;;17.08;3.83;;;31.40;65.50;;;;;;4972120;28;20034;-64
2022/09/24 09:25:50;;;;;;;19.35;3.35;;;31.50;74.10;;;;;;4956790;28;20348;-64
2022/09/24 09:28:16;;;;;;;18.23;3.95;;;31.30;61.80;;;;;;4973043;28;20109;-61
2022/09/24 09:30:55;;;;;;;19.88;3.05;;;31.30;61.80;;;;;;4972743;28;20137;-63
2022/09/24 09:33:31;;;;;;;17.55;3.55;;;31.20;61.80;;;;;;4989054;28;20453;-60
2022/09/24 09:36:31;;;;;;;20.65;4.15;;;31.20;61.90;;;;;;4972561;28;20030;-63
2022/09/24 09:39:20;;;;;;;20.85;3.53;;;31.20;62.50;;;;;;4972328;28;20081;-64
2022/09/24 09:42:01;;;;;;;16.17;2.97;;;31.10;62.10;;;;;;4958722;28;20029;-61
2022/09/24 09:44:35;;;;;;;16.73;3.22;;;31.10;63.40;;;;;;4956668;28;20049;-64
2022/09/24 09:47:36;;;;;;;12.07;3.10;;;31.10;62.60;;;;;;4973319;28;20030;-63
2022/09/24 09:50:11;;;;;;;17.02;3.47;;;31.10;63.10;;;;;;4972691;28;20030;-65
2022/09/24 09:52:38;;;;;;;16.98;3.20;;;31.00;62.60;;;;;;4990110;28;20449;-65
2022/09/24 09:55:06;;;;;;;20.05;3.47;;;31.00;63.80;;;;;;4989535;28;20481;-62
2022/09/24 09:57:37;;;;;;;17.23;3.20;;;31.00;63.10;;;;;;4988212;28;20041;-62
2022/09/24 10:00:04;;;;;;;9.90;3.00;;;31.00;62.90;;;;;;4969489;28;20027;-58
2022/09/24 10:02:34;;;;;;;14.20;3.38;;;30.90;64.00;;;;;;4975745;28;20018;-63
2022/09/24 10:05:02;;;;;;;13.18;3.47;;;30.90;64.10;;;;;;4957389;28;20502;-62
2022/09/24 10:07:30;;;;;;;20.00;4.32;;;30.90;63.70;;;;;;4972470;28;20081;-64
2022/09/24 10:10:24;;;;;;;17.75;3.65;;;30.90;63.40;;;;;;4970773;28;20110;-64
2022/09/24 10:13:12;;;;;;;16.00;3.85;;;30.90;65.30;;;;;;4970426;28;20030;-65
2022/09/24 10:15:54;;;;;;;19.05;3.40;;;30.80;63.00;;;;;;4988836;28;20045;-62
2022/09/24 10:18:27;;;;;;;14.13;3.55;;;30.80;63.10;;;;;;4988942;28;20532;-63
2022/09/24 10:20:55;;;;;;;15.65;4.13;;;30.60;87.20;;;;;;4987843;28;20472;-62
2022/09/24 10:23:56;;;;;;;16.23;3.25;;;30.80;63.90;;;;;;4956752;28;20019;-64
2022/09/24 10:26:37;;;;;;;16.60;3.47;;;30.70;63.00;;;;;;4898876;29;20115;-63
2022/09/24 10:31:49;;;;;;;14.50;3.05;;;30.70;63.70;;;;;;4909876;29;20110;-62
2022/09/24 10:34:33;;;;;;;10.63;2.58;;;30.70;63.90;;;;;;4910728;29;20039;-64
2022/09/24 10:37:12;;;;;;;13.05;2.95;;;30.70;64.70;;;;;;4879356;29;20040;-64
2022/09/24 10:39:38;;;;;;;19.80;3.13;;;30.60;64.30;;;;;;4909624;29;20121;-63
2022/09/24 10:42:06;;;;;;;17.92;3.70;;;30.60;64.20;;;;;;4894560;29;20123;-62
2022/09/24 10:44:36;;;;;;;12.82;3.40;;;30.60;64.50;;;;;;4879626;29;20072;-64
2022/09/24 10:47:21;;;;;;;19.92;3.28;;;30.40;86.30;;;;;;4894621;29;20024;-65
2022/09/24 10:50:00;;;;;;;21.73;3.40;;;30.50;65.30;;;;;;4910551;29;20040;-63
2022/09/24 10:53:21;;;;;;;31.55;3.97;;;30.50;64.90;;;;;;4910303;29;20103;-63
2022/09/24 10:56:16;;;;;;;19.67;3.10;;;30.30;90.50;;;;;;4833935;29;20681;-62
2022/09/24 10:59:22;;;;;;;21.23;3.70;;;30.40;64.70;;;;;;4835923;29;20045;-62
2022/09/24 11:02:13;;;;;;;24.83;3.95;;;30.40;65.50;;;;;;4862686;29;20147;-61
2022/09/24 11:04:55;;;;;;;14.00;3.60;;;30.50;66.20;;;;;;4910857;28;20040;-63
2022/09/24 11:07:59;;;;;;;13.30;3.40;;;30.10;90.80;;;;;;4909887;29;20031;-62
2022/09/24 11:10:40;;;;;;;14.23;3.55;;;30.30;93.10;;;;;;4909650;29;20035;-62
2022/09/24 11:13:52;;;;;;;25.45;4.15;;;30.40;65.00;;;;;;4910081;29;20038;-64
2022/09/24 11:16:37;;;;;;;16.30;3.63;;;30.40;64.80;;;;;;4853842;29;20121;-64
2022/09/24 11:19:36;;;;;;;23.25;4.45;;;30.10;91.50;;;;;;4854101;29;20980;-64
2022/09/24 11:22:12;;;;;;;16.25;3.80;;;30.40;65.40;;;;;;4854084;29;20413;-62
2022/09/24 11:25:20;;;;;;;24.98;4.35;;;30.40;87.40;;;;;;4853928;29;20116;-62
2022/09/24 11:27:49;;;;;;;22.30;4.40;;;30.00;90.90;;;;;;4851569;29;20029;-64
2022/09/24 11:30:17;;;;;;;17.50;3.97;;;29.90;91.80;;;;;;4860720;29;20382;-64
2022/09/24 11:33:17;;;;;;;31.52;4.30;;;30.30;92.30;;;;;;4891633;29;20033;-64
2022/09/24 11:36:21;;;;;;;21.15;4.15;;;30.30;66.20;;;;;;4889160;29;20029;-64
2022/09/24 11:39:08;;;;;;;19.50;3.42;;;30.20;66.10;;;;;;4884941;29;20055;-63
2022/09/24 11:41:51;;;;;;;26.25;4.43;;;30.20;94.80;;;;;;4891193;29;20068;-63
2022/09/24 11:44:25;;;;;;;20.58;3.88;;;30.10;67.20;;;;;;4890659;29;20043;-62
2022/09/24 11:47:10;;;;;;;25.90;4.30;;;30.00;92.90;;;;;;4938595;28;20133;-64
2022/09/24 11:50:02;;;;;;;18.08;3.97;;;30.60;92.50;;;;;;4974596;28;20495;-62
2022/09/24 11:52:38;;;;;;;18.75;4.45;;;30.10;68.50;;;;;;4976289;28;20112;-63
2022/09/24 11:55:24;;;;;;;24.95;4.40;;;30.20;67.60;;;;;;4991519;28;20038;-63
2022/09/24 11:58:18;;;;;;;40.03;5.45;;;30.10;67.40;;;;;;4974495;28;20113;-65
2022/09/24 12:00:54;;;;;;;35.22;5.13;;;29.40;89.60;;;;;;4957313;28;20476;-63
2022/09/24 12:03:37;;;;;;;27.95;5.57;;;29.70;91.40;;;;;;4990920;28;20033;-64
2022/09/24 12:06:11;;;;;;;34.25;5.22;;;30.40;91.40;;;;;;4974818;28;20027;-64
2022/09/24 12:08:55;;;;;;;26.27;4.70;;;30.20;91.40;;;;;;4945129;28;20033;-63
2022/09/24 12:11:34;;;;;;;32.95;5.43;;;30.10;93.00;;;;;;4972512;28;20049;-62
2022/09/24 12:14:43;;;;;;;30.48;5.93;;;30.30;91.60;;;;;;4974255;28;20473;-62
2022/09/24 12:17:17;;;;;;;29.88;5.22;;;30.00;67.30;;;;;;4973265;28;20022;-64
2022/09/24 12:20:23;;;;;;;28.35;4.72;;;30.20;90.20;;;;;;4957863;28;20062;-62
2022/09/24 12:22:58;;;;;;;37.10;5.25;;;30.00;93.10;;;;;;4919357;29;20043;-63
2022/09/24 12:25:31;;;;;;;22.65;4.32;;;30.00;68.10;;;;;;4915457;29;20127;-63
2022/09/24 12:27:59;;;;;;;30.30;5.00;;;29.70;92.50;;;;;;4930601;29;20103;-62
2022/09/24 12:33:35;;;;;;;33.75;5.43;;;29.80;91.50;;;;;;4932468;29;20046;-64
2022/09/24 12:36:43;;;;;;;39.33;6.60;;;29.80;70.90;;;;;;4931233;29;20027;-64
2022/09/24 12:39:16;;;;;;;23.92;6.30;;;29.80;69.80;;;;;;4922615;29;20046;-65
2022/09/24 12:41:53;;;;;;;39.50;7.32;;;29.70;70.40;;;;;;4913481;29;20056;-61
2022/09/24 12:44:35;;;;;;;38.28;6.68;;;29.70;70.80;;;;;;4916600;29;20052;-62
2022/09/24 12:47:02;;;;;;;32.78;6.82;;;29.70;70.30;;;;;;4900033;29;20495;-64
2022/09/24 12:49:36;;;;;;;37.88;6.68;;;29.70;71.10;;;;;;4930910;29;20059;-62
2022/09/24 12:52:24;;;;;;;39.38;7.07;;;29.70;70.20;;;;;;4930508;29;20048;-62
2022/09/24 12:55:01;;;;;;;34.85;6.32;;;29.70;70.00;;;;;;4914773;29;20046;-65
2022/09/24 12:57:40;;;;;;;29.75;6.60;;;29.70;70.30;;;;;;4900345;29;20031;-63
2022/09/24 13:00:32;;;;;;;25.42;5.70;;;29.70;70.70;;;;;;4968474;28;20084;-64
2022/09/24 13:02:59;;;;;;;33.67;6.50;;;29.70;70.60;;;;;;4990351;28;20015;-63
2022/09/24 13:05:45;;;;;;;46.72;7.65;;;29.80;93.50;;;;;;4958265;28;20062;-63
2022/09/24 13:08:15;;;;;;;47.78;7.55;;;29.70;92.60;;;;;;4956832;28;20183;-64
2022/09/24 13:10:54;;;;;;;32.88;7.57;;;29.30;95.20;;;;;;4991237;28;20500;-63
2022/09/24 13:13:32;;;;;;;42.30;9.02;;;29.60;71.10;;;;;;4974791;28;20030;-62
2022/09/24 13:16:19;;;;;;;30.85;8.38;;;29.60;70.80;;;;;;4960157;28;20026;-64
2022/09/24 13:18:58;;;;;;;33.42;7.72;;;29.70;98.40;;;;;;4973960;28;20546;-65
2022/09/24 13:21:27;;;;;;;36.05;8.60;;;30.10;95.60;;;;;;4944737;28;20041;-65
2022/09/24 13:23:54;;;;;;;32.90;7.95;;;29.60;94.50;;;;;;4974256;28;20045;-63
2022/09/24 13:26:20;;;;;;;40.05;8.63;;;;;;;;;;4973303;28;20027;-63
2022/09/24 13:28:47;;;;;;;36.28;8.65;;;29.70;75.90;;;;;;4990883;28;20096;-63